Time;durP1;ratioP1;P1;durP2;ratioP2;P2;SDS_P1;SDS_P2;PMS_P1;PMS_P2;Temp;Humidity;BMP_temperature;BMP_pressure;BME280_temperature;BME280_humidity;BME280_pressure;Samples;Min_cycle;Max_cycle;Signal;HPM_P1;HPM_P2
2023/09/11 00:00:29;;;;;;;75.65;35.95;;;;;;;;;;4970695;28;20058;-79
2023/09/11 00:02:55;;;;;;;71.45;33.28;;;;;;;;;;4954970;28;20125;-74
2023/09/11 00:05:22;;;;;;;86.13;38.05;;;;;;;;;;4971700;28;20194;-73
2023/09/11 00:07:50;;;;;;;67.10;34.72;;;;;;;;;;4971820;28;20491;-74
2023/09/11 00:10:16;;;;;;;67.55;33.92;;;;;;;;;;4970241;28;20056;-76
2023/09/11 00:12:42;;;;;;;86.70;36.72;;;;;;;;;;4969892;28;20097;-76
2023/09/11 00:15:08;;;;;;;74.70;35.63;;;;;;;;;;4970842;28;20061;-77
2023/09/11 00:17:34;;;;;;;78.82;37.22;;;;;;;;;;4971905;28;20042;-77
2023/09/11 00:20:00;;;;;;;72.32;37.85;;;;;;;;;;4970859;28;20050;-77
2023/09/11 00:22:26;;;;;;;80.85;37.42;;;;;;;;;;4970614;28;20055;-79
2023/09/11 00:24:52;;;;;;;80.65;37.10;;;;;;;;;;4970698;28;20047;-77
2023/09/11 00:27:18;;;;;;;75.88;38.03;;;;;;;;;;4971558;28;20510;-79
2023/09/11 00:29:44;;;;;;;75.70;35.55;;;;;;;;;;4970269;28;20039;-76
2023/09/11 00:32:10;;;;;;;77.78;37.15;;;;;;;;;;4969975;28;20104;-78
2023/09/11 00:34:36;;;;;;;75.13;36.95;;;;;;;;;;4970317;28;20043;-77
2023/09/11 00:37:02;;;;;;;79.00;36.75;;;;;;;;;;4971497;28;20053;-77
2023/09/11 00:39:28;;;;;;;81.65;37.10;;;;;;;;;;4971322;28;20346;-76
2023/09/11 00:41:54;;;;;;;75.35;36.03;;;;;;;;;;4971526;28;20173;-77
2023/09/11 00:44:21;;;;;;;75.68;35.42;;;;;;;;;;4953832;28;20137;-75
2023/09/11 00:46:47;;;;;;;81.30;36.10;;;;;;;;;;4971739;28;20051;-78
2023/09/11 00:49:12;;;;;;;77.10;36.47;;;;;;;;;;4971311;28;20043;-77
2023/09/11 00:51:38;;;;;;;81.68;37.58;;;;;;;;;;4971551;28;20089;-77
2023/09/11 00:54:04;;;;;;;88.22;36.97;;;;;;;;;;4970404;28;20050;-77
2023/09/11 00:56:30;;;;;;;73.80;35.70;;;;;;;;;;4969974;28;20051;-77
2023/09/11 00:58:56;;;;;;;85.53;37.20;;;;;;;;;;4971083;28;20114;-77
2023/09/11 01:01:22;;;;;;;68.40;28.20;;;;;;;;;;4969260;28;20086;-78
2023/09/11 01:03:48;;;;;;;68.32;29.33;;;;;;;;;;4953906;28;20547;-77
2023/09/11 01:06:14;;;;;;;188.93;28.60;;;;;;;;;;4969679;28;20042;-77
2023/09/11 01:08:40;;;;;;;89.28;25.13;;;;;;;;;;4954074;28;20467;-77
2023/09/11 01:11:07;;;;;;;135.63;31.30;;;;;;;;;;4970005;28;20047;-77
2023/09/11 01:13:33;;;;;;;332.15;33.17;;;;;;;;;;4970414;28;20057;-78
2023/09/11 01:16:04;;;;;;;166.20;30.17;;;;;;;;;;4969803;28;20074;-78
2023/09/11 01:18:30;;;;;;;240.43;35.45;;;;;;;;;;4969881;28;20077;-78
2023/09/11 01:20:56;;;;;;;200.32;33.85;;;;;;;;;;4938917;28;20593;-77
2023/09/11 01:23:25;;;;;;;124.38;33.25;;;;;;;;;;4969862;28;20129;-77
2023/09/11 01:25:57;;;;;;;824.67;60.78;;;;;;;;;;4974035;28;20043;-77
2023/09/11 01:28:32;;;;;;;279.25;34.72;;;;;;;;;;4973239;28;20038;-74
2023/09/11 01:30:59;;;;;;;413.35;38.75;;;;;;;;;;4973688;28;20045;-76
2023/09/11 01:33:25;;;;;;;50.33;28.30;;;;;;;;;;4973048;28;20046;-75
2023/09/11 01:35:51;;;;;;;76.47;33.00;;;;;;;;;;4957847;28;20415;-75
2023/09/11 01:38:17;;;;;;;56.53;28.48;;;;;;;;;;4974755;28;20038;-75
2023/09/11 01:40:44;;;;;;;62.67;30.33;;;;;;;;;;4958154;28;20046;-76
2023/09/11 01:43:10;;;;;;;64.63;31.98;;;;;;;;;;4974843;28;20077;-74
2023/09/11 01:45:36;;;;;;;51.05;27.55;;;;;;;;;;4973469;28;20123;-75
2023/09/11 01:48:02;;;;;;;58.55;31.58;;;;;;;;;;4974977;28;20113;-75
2023/09/11 01:50:29;;;;;;;65.65;33.55;;;;;;;;;;4973574;28;20116;-75
2023/09/11 01:52:55;;;;;;;72.43;34.78;;;;;;;;;;4973640;28;20051;-76
2023/09/11 01:55:21;;;;;;;72.45;35.33;;;;;;;;;;4957423;28;20447;-74
2023/09/11 01:57:47;;;;;;;77.55;34.40;;;;;;;;;;4975023;28;20042;-77
2023/09/11 02:00:14;;;;;;;84.43;35.42;;;;;;;;;;4981840;28;20058;-76
2023/09/11 02:02:41;;;;;;;68.05;33.72;;;;;;;;;;4967910;28;20050;-76
2023/09/11 02:05:07;;;;;;;49.50;29.60;;;;;;;;;;4979067;28;20046;-75
2023/09/11 02:07:33;;;;;;;52.60;29.35;;;;;;;;;;4974567;28;20094;-75
2023/09/11 02:09:59;;;;;;;54.35;30.30;;;;;;;;;;4975395;28;20561;-78
2023/09/11 02:12:26;;;;;;;50.00;28.50;;;;;;;;;;4973758;28;20046;-77
2023/09/11 02:14:52;;;;;;;36.25;25.13;;;;;;;;;;4973561;28;20062;-77
2023/09/11 02:17:19;;;;;;;50.63;31.27;;;;;;;;;;4972849;28;20135;-77
2023/09/11 02:19:45;;;;;;;65.07;36.67;;;;;;;;;;4973308;28;20051;-78
2023/09/11 02:22:12;;;;;;;61.60;36.65;;;;;;;;;;4973065;28;20074;-77
2023/09/11 02:24:39;;;;;;;59.72;33.88;;;;;;;;;;4972462;28;20109;-77
2023/09/11 02:27:05;;;;;;;75.35;33.92;;;;;;;;;;4957089;28;20043;-77
2023/09/11 02:29:31;;;;;;;65.15;32.80;;;;;;;;;;4973385;28;20066;-76
2023/09/11 02:32:00;;;;;;;64.25;33.58;;;;;;;;;;4974355;28;20042;-78
2023/09/11 02:34:26;;;;;;;76.57;33.72;;;;;;;;;;4973846;28;20054;-77
2023/09/11 02:36:52;;;;;;;85.78;38.40;;;;;;;;;;4972639;28;20045;-76
2023/09/11 02:39:19;;;;;;;81.18;36.75;;;;;;;;;;4972721;28;20419;-76
2023/09/11 02:41:45;;;;;;;89.25;37.03;;;;;;;;;;4972551;28;20062;-77
2023/09/11 02:44:47;;;;;;;84.35;36.97;;;;;;;;;;4972526;28;20236;-76
2023/09/11 02:47:26;;;;;;;55.53;34.75;;;;;;;;;;4954357;28;20511;-77
2023/09/11 02:49:52;;;;;;;236.45;41.90;;;;;;;;;;4941121;28;20038;-77
2023/09/11 02:52:18;;;;;;;85.03;47.38;;;;;;;;;;4940606;28;20043;-79
2023/09/11 02:54:44;;;;;;;84.68;36.92;;;;;;;;;;4940681;28;20129;-78
2023/09/11 02:57:10;;;;;;;90.03;43.15;;;;;;;;;;4940434;28;20041;-78
2023/09/11 02:59:38;;;;;;;81.95;35.90;;;;;;;;;;4939837;28;20050;-77
2023/09/11 03:02:04;;;;;;;69.38;37.22;;;;;;;;;;4967467;28;20180;-77
2023/09/11 03:04:30;;;;;;;67.57;33.25;;;;;;;;;;4939927;28;20419;-77
2023/09/11 03:06:57;;;;;;;75.65;36.08;;;;;;;;;;4940227;28;20050;-77
2023/09/11 03:09:23;;;;;;;73.50;34.97;;;;;;;;;;4955958;28;20054;-76
2023/09/11 03:11:49;;;;;;;62.47;33.47;;;;;;;;;;4940330;28;20477;-77
2023/09/11 03:14:17;;;;;;;56.70;34.50;;;;;;;;;;4939884;28;20047;-77
2023/09/11 03:16:43;;;;;;;60.70;33.22;;;;;;;;;;4939989;28;20047;-75
2023/09/11 03:19:10;;;;;;;46.35;31.25;;;;;;;;;;4924432;28;20040;-74
2023/09/11 03:22:01;;;;;;;45.35;30.50;;;;;;;;;;4939963;28;20094;-77
2023/09/11 03:24:28;;;;;;;47.15;28.95;;;;;;;;;;4939888;28;20046;-76
2023/09/11 03:26:54;;;;;;;51.70;27.40;;;;;;;;;;4921169;29;20050;-75
2023/09/11 03:29:20;;;;;;;48.75;28.80;;;;;;;;;;4905170;29;20047;-77
2023/09/11 03:31:47;;;;;;;36.22;26.98;;;;;;;;;;4905722;29;20047;-77
2023/09/11 03:34:21;;;;;;;43.05;28.40;;;;;;;;;;4923601;29;20138;-77
2023/09/11 03:36:47;;;;;;;38.60;27.63;;;;;;;;;;4906351;29;20071;-79
2023/09/11 03:39:13;;;;;;;33.72;26.48;;;;;;;;;;4905911;29;20125;-80
2023/09/11 03:41:39;;;;;;;33.22;25.25;;;;;;;;;;4906009;29;20051;-78
2023/09/11 03:44:06;;;;;;;32.15;25.65;;;;;;;;;;4937938;29;20057;-77
2023/09/11 03:46:32;;;;;;;31.50;25.58;;;;;;;;;;4905638;28;20098;-76
2023/09/11 03:48:58;;;;;;;47.42;28.98;;;;;;;;;;4906061;29;20047;-78
2023/09/11 03:51:24;;;;;;;35.50;26.23;;;;;;;;;;4906039;29;20043;-76
2023/09/11 03:53:51;;;;;;;31.85;25.77;;;;;;;;;;4906441;29;20404;-80
2023/09/11 03:56:21;;;;;;;41.08;25.88;;;;;;;;;;4905822;29;20134;-80
2023/09/11 03:58:49;;;;;;;35.88;26.13;;;;;;;;;;4936123;29;20479;-80
2023/09/11 04:01:16;;;;;;;42.97;27.38;;;;;;;;;;4905313;29;20054;-81
2023/09/11 04:03:43;;;;;;;33.70;24.98;;;;;;;;;;4914155;29;20508;-79
2023/09/11 04:06:09;;;;;;;34.33;25.13;;;;;;;;;;4920422;29;20035;-81
2023/09/11 04:08:35;;;;;;;41.03;25.15;;;;;;;;;;4951398;28;20051;-78
2023/09/11 04:11:05;;;;;;;31.50;23.95;;;;;;;;;;4935660;28;20047;-79
2023/09/11 04:13:32;;;;;;;30.47;25.77;;;;;;;;;;4919830;29;20063;-80
2023/09/11 04:15:58;;;;;;;38.60;26.13;;;;;;;;;;4919608;29;20039;-80
2023/09/11 04:18:24;;;;;;;35.83;24.80;;;;;;;;;;4967506;28;20054;-79
2023/09/11 04:21:00;;;;;;;50.15;29.83;;;;;;;;;;4913471;29;20050;-79
2023/09/11 04:23:26;;;;;;;39.53;26.25;;;;;;;;;;4932741;28;20491;-78
2023/09/11 04:25:53;;;;;;;30.88;24.73;;;;;;;;;;4937944;28;20501;-80
2023/09/11 04:28:19;;;;;;;31.80;25.73;;;;;;;;;;4933622;29;20071;-80
2023/09/11 04:30:45;;;;;;;34.45;26.23;;;;;;;;;;4934247;29;20043;-79
2023/09/11 04:33:11;;;;;;;36.30;26.70;;;;;;;;;;4935110;29;20042;-78
2023/09/11 04:35:37;;;;;;;35.13;25.48;;;;;;;;;;4935368;29;20043;-79
2023/09/11 04:38:03;;;;;;;42.17;26.33;;;;;;;;;;4967253;28;20590;-80
2023/09/11 04:40:29;;;;;;;49.13;30.10;;;;;;;;;;4903959;29;20043;-79
2023/09/11 04:42:55;;;;;;;44.35;27.38;;;;;;;;;;4935034;29;20039;-79
2023/09/11 04:45:21;;;;;;;38.92;26.35;;;;;;;;;;4951058;28;20043;-79
2023/09/11 04:47:47;;;;;;;39.92;25.67;;;;;;;;;;4935700;29;20039;-80
2023/09/11 04:50:14;;;;;;;35.33;26.13;;;;;;;;;;4968898;28;20221;-80
2023/09/11 04:52:41;;;;;;;35.33;25.83;;;;;;;;;;4920827;29;20054;-79
2023/09/11 04:55:08;;;;;;;31.33;23.83;;;;;;;;;;4936962;29;20051;-80
2023/09/11 04:57:34;;;;;;;36.72;25.73;;;;;;;;;;4924186;29;20543;-79
2023/09/11 05:00:01;;;;;;;38.22;26.67;;;;;;;;;;4939601;29;20059;-80
2023/09/11 05:02:32;;;;;;;43.28;27.25;;;;;;;;;;4939160;29;20400;-79
2023/09/11 05:05:03;;;;;;;39.95;26.58;;;;;;;;;;4955721;29;20198;-79
2023/09/11 05:07:30;;;;;;;40.28;27.67;;;;;;;;;;4922975;29;20054;-80
2023/09/11 05:09:56;;;;;;;41.13;28.60;;;;;;;;;;4955237;29;20062;-80
2023/09/11 05:12:24;;;;;;;46.45;28.83;;;;;;;;;;4950459;29;20059;-78
2023/09/11 05:14:50;;;;;;;48.38;30.33;;;;;;;;;;4939321;29;20059;-78
2023/09/11 05:17:18;;;;;;;43.30;28.02;;;;;;;;;;4956040;29;20051;-79
2023/09/11 05:19:44;;;;;;;43.33;26.15;;;;;;;;;;4938768;29;20043;-80
2023/09/11 05:22:10;;;;;;;49.55;29.02;;;;;;;;;;4939348;29;20051;-80
2023/09/11 05:24:36;;;;;;;45.45;28.35;;;;;;;;;;4963254;28;20122;-81
2023/09/11 05:27:03;;;;;;;39.72;25.92;;;;;;;;;;4981575;28;20047;-79
2023/09/11 05:29:35;;;;;;;46.03;28.00;;;;;;;;;;4977276;28;20522;-80
2023/09/11 05:32:02;;;;;;;43.97;26.20;;;;;;;;;;4958088;28;20519;-80
2023/09/11 05:34:28;;;;;;;49.85;28.90;;;;;;;;;;4941959;28;20062;-79
2023/09/11 05:36:54;;;;;;;48.15;28.80;;;;;;;;;;4941618;28;20183;-80
2023/09/11 05:39:21;;;;;;;39.85;26.95;;;;;;;;;;4941312;28;20593;-79
2023/09/11 05:41:47;;;;;;;32.92;21.58;;;;;;;;;;4941344;28;20035;-79
2023/09/11 05:44:13;;;;;;;29.60;20.90;;;;;;;;;;4957497;28;20124;-80
2023/09/11 05:46:40;;;;;;;32.97;22.00;;;;;;;;;;4956795;28;20039;-79
2023/09/11 05:49:11;;;;;;;34.72;20.60;;;;;;;;;;4942567;28;20268;-80
2023/09/11 05:51:43;;;;;;;28.05;19.85;;;;;;;;;;4957940;28;20047;-79
2023/09/11 05:54:14;;;;;;;31.75;21.65;;;;;;;;;;4942618;28;20058;-79
2023/09/11 05:56:40;;;;;;;30.17;22.67;;;;;;;;;;4940650;28;20415;-80
2023/09/11 05:59:06;;;;;;;40.10;25.35;;;;;;;;;;4957138;28;20051;-79
2023/09/11 06:01:32;;;;;;;36.53;23.02;;;;;;;;;;4972875;28;20035;-79
2023/09/11 06:03:58;;;;;;;38.42;24.80;;;;;;;;;;4972927;28;20138;-79
2023/09/11 06:06:24;;;;;;;43.80;24.02;;;;;;;;;;4974489;28;20042;-80
2023/09/11 06:08:50;;;;;;;40.83;24.30;;;;;;;;;;4956892;28;20047;-79
2023/09/11 06:11:16;;;;;;;51.83;24.30;;;;;;;;;;4973880;28;20046;-78
2023/09/11 06:13:43;;;;;;;43.92;22.38;;;;;;;;;;4988849;28;20503;-81
2023/09/11 06:16:10;;;;;;;47.53;24.67;;;;;;;;;;4969796;28;20043;-78
2023/09/11 06:18:36;;;;;;;32.10;20.38;;;;;;;;;;4970426;28;20051;-78
2023/09/11 06:21:02;;;;;;;31.10;19.33;;;;;;;;;;4972512;28;20038;-77
2023/09/11 06:23:28;;;;;;;36.05;23.92;;;;;;;;;;4971891;28;20546;-78
2023/09/11 06:25:55;;;;;;;37.25;24.52;;;;;;;;;;4971973;28;20077;-79
2023/09/11 06:28:24;;;;;;;38.17;23.25;;;;;;;;;;4954478;28;20034;-79
2023/09/11 06:30:50;;;;;;;33.90;23.38;;;;;;;;;;4965769;28;20837;-81
2023/09/11 06:33:15;;;;;;;38.38;24.80;;;;;;;;;;4960555;28;20098;-80
2023/09/11 06:35:46;;;;;;;33.97;23.42;;;;;;;;;;4970329;28;20062;-79
2023/09/11 06:41:27;;;;;;;24.88;17.05;;;;;;;;;;4958815;28;20049;-78
2023/09/11 06:43:53;;;;;;;19.02;11.30;;;;;;;;;;4972773;28;20109;-77
2023/09/11 06:46:19;;;;;;;42.67;25.48;;;;;;;;;;4955873;28;20102;-77
2023/09/11 06:48:48;;;;;;;36.42;26.20;;;;;;;;;;4985999;28;20055;-78
2023/09/11 06:54:42;;;;;;;42.78;26.50;;;;;;;;;;4973026;28;20058;-79
2023/09/11 06:57:09;;;;;;;41.80;27.60;;;;;;;;;;4955824;28;20138;-78
2023/09/11 06:59:36;;;;;;;37.25;25.95;;;;;;;;;;4955048;28;20062;-79
2023/09/11 07:02:41;;;;;;;33.05;23.45;;;;;;;;;;4935199;29;20204;-78
2023/09/11 07:05:52;;;;;;;32.63;26.13;;;;;;;;;;4953337;29;20531;-76
2023/09/11 07:08:18;;;;;;;32.25;25.52;;;;;;;;;;4919947;29;20688;-77
2023/09/11 07:10:52;;;;;;;32.73;26.33;;;;;;;;;;4929301;28;20050;-76
2023/09/11 07:13:18;;;;;;;36.42;23.45;;;;;;;;;;4949262;28;20290;-74
2023/09/11 07:15:52;;;;;;;37.08;27.73;;;;;;;;;;4940185;28;20049;-74
2023/09/11 07:18:18;;;;;;;29.02;23.95;;;;;;;;;;4942011;28;20043;-76
2023/09/11 07:20:45;;;;;;;34.33;26.67;;;;;;;;;;4941763;28;20046;-76
2023/09/11 07:23:11;;;;;;;34.22;24.10;;;;;;;;;;4957803;28;20042;-75
2023/09/11 07:25:37;;;;;;;13.57;12.20;;;;;;;;;;4950207;28;20045;-76
2023/09/11 07:28:07;;;;;;;32.20;25.05;;;;;;;;;;4937303;28;20138;-77
2023/09/11 07:30:33;;;;;;;25.52;19.30;;;;;;;;;;4955197;28;20133;-76
2023/09/11 07:32:59;;;;;;;28.40;24.05;;;;;;;;;;4919867;29;20583;-76
2023/09/11 07:35:27;;;;;;;29.65;23.13;;;;;;;;;;4920065;29;20047;-76
2023/09/11 07:37:56;;;;;;;31.38;22.70;;;;;;;;;;4919827;28;20054;-77
2023/09/11 07:40:23;;;;;;;22.02;19.73;;;;;;;;;;4903982;29;20039;-77
2023/09/11 07:42:49;;;;;;;32.15;22.30;;;;;;;;;;4919149;29;20039;-78
2023/09/11 07:45:15;;;;;;;26.10;20.20;;;;;;;;;;4919588;29;20043;-78
2023/09/11 07:47:41;;;;;;;23.83;21.33;;;;;;;;;;4930655;28;20039;-77
2023/09/11 07:50:07;;;;;;;26.27;20.40;;;;;;;;;;4930544;28;20042;-78
2023/09/11 07:52:35;;;;;;;24.48;21.42;;;;;;;;;;4910574;28;20485;-77
2023/09/11 07:55:02;;;;;;;30.45;23.15;;;;;;;;;;4962444;28;20073;-76
2023/09/11 07:57:34;;;;;;;34.60;23.75;;;;;;;;;;4948391;28;20043;-75
2023/09/11 14:20:23;;;;;;;9.25;7.68;;;;;;;;;;4967239;28;20478;-72
2023/09/11 14:22:49;;;;;;;9.18;8.20;;;;;;;;;;4947067;28;20051;-73
2023/09/11 14:25:15;;;;;;;8.95;8.07;;;;;;;;;;4975324;28;20038;-72
2023/09/11 14:27:41;;;;;;;11.45;8.45;;;;;;;;;;4973814;28;20073;-73
2023/09/11 14:30:07;;;;;;;9.93;8.90;;;;;;;;;;4941721;28;20524;-72
2023/09/11 14:32:33;;;;;;;12.18;8.93;;;;;;;;;;4925563;28;20511;-73
2023/09/11 14:34:59;;;;;;;9.10;8.38;;;;;;;;;;4956692;28;20050;-75
2023/09/11 14:37:25;;;;;;;10.88;8.75;;;;;;;;;;4939251;29;20192;-73
2023/09/11 14:39:56;;;;;;;11.05;10.05;;;;;;;;;;4922915;29;20142;-73
2023/09/11 14:42:22;;;;;;;10.77;9.68;;;;;;;;;;4940450;29;20668;-74
2023/09/11 14:44:50;;;;;;;13.30;10.00;;;;;;;;;;4941644;29;20075;-73
2023/09/11 14:47:16;;;;;;;14.30;9.27;;;;;;;;;;4939801;29;20039;-73
2023/09/11 14:49:42;;;;;;;9.73;8.73;;;;;;;;;;4929028;28;20055;-74
2023/09/11 14:52:33;;;;;;;11.65;8.70;;;;;;;;;;4940464;28;20058;-75
2023/09/11 14:54:59;;;;;;;9.88;8.63;;;;;;;;;;4935944;29;20078;-74
2023/09/11 14:57:25;;;;;;;16.75;9.73;;;;;;;;;;4936882;29;20039;-73
2023/09/11 14:59:53;;;;;;;10.55;9.30;;;;;;;;;;4905189;29;20064;-76
2023/09/11 15:02:19;;;;;;;13.07;9.18;;;;;;;;;;4921612;29;20058;-75
2023/09/11 15:04:45;;;;;;;13.85;10.43;;;;;;;;;;4906788;29;20102;-74
2023/09/11 15:07:11;;;;;;;11.63;9.80;;;;;;;;;;4921594;29;20047;-73
2023/09/11 15:09:38;;;;;;;11.23;10.23;;;;;;;;;;4922567;29;20039;-73
2023/09/11 15:12:05;;;;;;;13.70;9.50;;;;;;;;;;4921784;29;20048;-74
2023/09/11 15:14:32;;;;;;;11.20;10.25;;;;;;;;;;4952092;29;20158;-74
2023/09/11 15:17:02;;;;;;;;;;;;;;;;;;4953291;28;20042;-74
2023/09/11 15:19:28;;;;;;;11.82;10.55;;;;;;;;;;4952493;28;20390;-73
2023/09/11 15:21:54;;;;;;;11.45;10.55;;;;;;;;;;4930886;28;20074;-74
2023/09/11 15:24:20;;;;;;;12.02;10.60;;;;;;;;;;4918690;28;20097;-73
2023/09/11 15:26:49;;;;;;;13.02;10.30;;;;;;;;;;4939062;28;20035;-73
2023/09/11 15:29:18;;;;;;;13.88;10.85;;;;;;;;;;4938615;28;20514;-73
2023/09/11 15:31:44;;;;;;;11.02;9.95;;;;;;;;;;4932608;28;20562;-73
2023/09/11 15:34:12;;;;;;;10.60;9.70;;;;;;;;;;4938636;28;20538;-74
2023/09/11 15:36:41;;;;;;;14.25;11.60;;;;;;;;;;4953542;28;20070;-75
2023/09/11 15:39:07;;;;;;;15.02;11.98;;;;;;;;;;4938378;28;20605;-74
2023/09/11 15:41:33;;;;;;;12.95;11.65;;;;;;;;;;4938664;28;20046;-75
2023/09/11 15:44:00;;;;;;;13.88;11.88;;;;;;;;;;4934989;28;20458;-74
2023/09/11 15:46:26;;;;;;;13.82;11.38;;;;;;;;;;4933427;28;20039;-75
2023/09/11 15:48:52;;;;;;;12.30;10.63;;;;;;;;;;4929590;28;20522;-74
2023/09/11 15:51:18;;;;;;;16.00;11.30;;;;;;;;;;4927247;28;20043;-74
2023/09/11 15:53:46;;;;;;;18.83;13.55;;;;;;;;;;4932760;28;20129;-73
2023/09/11 15:56:15;;;;;;;15.50;11.85;;;;;;;;;;4943603;29;20090;-74
2023/09/11 15:58:45;;;;;;;12.98;11.68;;;;;;;;;;4951070;29;20118;-74
2023/09/11 16:01:29;;;;;;;15.93;11.35;;;;;;;;;;4935065;29;20047;-75
2023/09/11 16:03:55;;;;;;;15.23;11.48;;;;;;;;;;4919519;29;20094;-75
2023/09/11 16:06:21;;;;;;;19.25;12.30;;;;;;;;;;4932911;28;20463;-74
2023/09/11 16:08:47;;;;;;;13.95;12.50;;;;;;;;;;4937491;28;20133;-75
2023/09/11 16:11:13;;;;;;;17.23;12.65;;;;;;;;;;4920675;28;20434;-75
2023/09/11 16:13:39;;;;;;;15.40;11.85;;;;;;;;;;4921673;28;20039;-75
2023/09/11 16:16:05;;;;;;;16.05;11.70;;;;;;;;;;4921046;28;20050;-74
2023/09/11 16:18:32;;;;;;;19.77;11.93;;;;;;;;;;4922314;28;20077;-74
2023/09/11 16:21:03;;;;;;;13.32;12.00;;;;;;;;;;4939088;28;20047;-74
2023/09/11 16:23:29;;;;;;;20.73;12.30;;;;;;;;;;4937720;28;20508;-75
2023/09/11 16:25:56;;;;;;;13.95;12.38;;;;;;;;;;4938301;28;20440;-73
2023/09/11 16:28:25;;;;;;;16.40;12.02;;;;;;;;;;4937983;28;20215;-73
2023/09/11 16:30:51;;;;;;;18.45;12.82;;;;;;;;;;4954023;28;20051;-74
2023/09/11 16:33:17;;;;;;;19.20;13.07;;;;;;;;;;4937898;28;20062;-74
2023/09/11 16:35:51;;;;;;;17.63;12.57;;;;;;;;;;4954795;28;20141;-74
2023/09/11 16:38:17;;;;;;;14.38;12.35;;;;;;;;;;4952595;28;20070;-73
2023/09/11 16:40:43;;;;;;;20.30;13.02;;;;;;;;;;4932828;28;20035;-74
2023/09/11 16:43:09;;;;;;;18.58;13.88;;;;;;;;;;4916160;28;20062;-74
2023/09/11 16:45:36;;;;;;;21.73;13.52;;;;;;;;;;4928403;28;20065;-74
2023/09/11 16:48:05;;;;;;;23.77;14.02;;;;;;;;;;4926913;28;20046;-73
2023/09/11 16:50:31;;;;;;;21.45;13.48;;;;;;;;;;4926739;28;20046;-73
2023/09/11 16:52:58;;;;;;;19.38;14.88;;;;;;;;;;4933821;28;20130;-74
2023/09/11 16:55:24;;;;;;;20.75;14.70;;;;;;;;;;4967143;28;20058;-73
2023/09/11 16:57:50;;;;;;;23.27;14.75;;;;;;;;;;4943098;28;20039;-75
2023/09/11 17:00:17;;;;;;;20.17;14.27;;;;;;;;;;4969038;28;20039;-74
2023/09/11 17:02:47;;;;;;;22.85;13.30;;;;;;;;;;4929473;28;20043;-73
2023/09/11 17:05:38;;;;;;;;;;;;;;;;;;4950469;28;20043;-74
2023/09/11 17:08:05;;;;;;;22.15;15.02;;;;;;;;;;4958779;28;19922;-74
2023/09/11 17:10:31;;;;;;;29.58;15.30;;;;;;;;;;4910881;28;20543;-75
2023/09/11 17:12:57;;;;;;;24.70;15.85;;;;;;;;;;4928390;29;20074;-75
2023/09/11 17:15:23;;;;;;;21.83;16.08;;;;;;;;;;4927731;28;20044;-74
2023/09/11 17:17:49;;;;;;;18.40;15.07;;;;;;;;;;4926883;28;20040;-74
2023/09/11 17:20:16;;;;;;;25.95;15.88;;;;;;;;;;4932873;28;20554;-74
2023/09/11 17:22:42;;;;;;;22.13;15.90;;;;;;;;;;4933258;28;20125;-74
2023/09/11 17:25:09;;;;;;;23.23;15.23;;;;;;;;;;4917986;28;20336;-75
2023/09/11 17:27:35;;;;;;;32.08;15.82;;;;;;;;;;4926410;28;20137;-74
2023/09/11 17:30:02;;;;;;;20.10;15.77;;;;;;;;;;4964876;28;20039;-78
2023/09/11 17:32:36;;;;;;;20.45;15.68;;;;;;;;;;4932130;28;20047;-75
2023/09/11 17:35:03;;;;;;;32.42;17.25;;;;;;;;;;4958690;28;20055;-75
2023/09/11 17:37:33;;;;;;;23.77;17.45;;;;;;;;;;4964412;28;20043;-76
2023/09/11 17:40:03;;;;;;;56.45;28.98;;;;;;;;;;4926468;28;20039;-76
2023/09/11 17:42:39;;;;;;;40.63;20.55;;;;;;;;;;4945081;28;20066;-77
2023/09/11 17:45:05;;;;;;;38.63;19.25;;;;;;;;;;4934419;28;20038;-77
2023/09/11 17:47:37;;;;;;;21.75;16.25;;;;;;;;;;4952603;28;20039;-76
2023/09/11 17:50:04;;;;;;;29.95;17.50;;;;;;;;;;4945477;28;20043;-76
2023/09/11 17:52:30;;;;;;;35.97;17.25;;;;;;;;;;4946009;28;20065;-76
2023/09/11 17:54:56;;;;;;;63.47;19.95;;;;;;;;;;4936941;28;20046;-76
2023/09/11 17:57:22;;;;;;;68.75;20.40;;;;;;;;;;4933675;28;20047;-77
2023/09/11 17:59:49;;;;;;;75.68;20.63;;;;;;;;;;4926762;28;20031;-76
2023/09/11 18:02:15;;;;;;;88.03;18.42;;;;;;;;;;4933967;28;20072;-76
2023/09/11 18:04:41;;;;;;;71.07;19.23;;;;;;;;;;4968855;28;20035;-77
2023/09/11 18:07:35;;;;;;;35.20;15.18;;;;;;;;;;4959188;28;20089;-77
2023/09/11 18:10:05;;;;;;;28.88;15.82;;;;;;;;;;4956724;28;20728;-77
2023/09/11 18:12:36;;;;;;;35.35;16.90;;;;;;;;;;4957166;28;20043;-77
2023/09/11 18:15:03;;;;;;;49.10;16.67;;;;;;;;;;4949953;28;20531;-76
2023/09/11 18:17:33;;;;;;;58.28;16.48;;;;;;;;;;4940699;28;20038;-76
2023/09/11 18:19:59;;;;;;;41.28;18.33;;;;;;;;;;4940280;28;20047;-76
2023/09/11 18:22:25;;;;;;;74.05;19.58;;;;;;;;;;4936189;28;20050;-76
2023/09/11 18:24:59;;;;;;;37.78;18.98;;;;;;;;;;4954191;28;20054;-77
2023/09/11 18:27:25;;;;;;;35.38;18.98;;;;;;;;;;4967422;28;20078;-77
2023/09/11 18:29:52;;;;;;;26.30;19.67;;;;;;;;;;4932953;28;20199;-75
2023/09/11 18:32:18;;;;;;;32.20;20.58;;;;;;;;;;4936779;28;20103;-82
2023/09/11 18:34:49;;;;;;;46.13;24.80;;;;;;;;;;4932822;28;20150;-77
2023/09/11 18:37:15;;;;;;;44.13;26.02;;;;;;;;;;4936433;28;20078;-75
2023/09/11 18:39:48;;;;;;;39.55;22.40;;;;;;;;;;4955125;28;20127;-74
2023/09/11 18:42:14;;;;;;;44.55;24.52;;;;;;;;;;4955490;28;20047;-76
2023/09/11 18:44:40;;;;;;;37.55;23.92;;;;;;;;;;4939568;28;20049;-76
2023/09/11 18:47:06;;;;;;;43.75;24.27;;;;;;;;;;4971570;28;20203;-76
2023/09/11 18:49:35;;;;;;;28.88;17.05;;;;;;;;;;4938438;28;20434;-83
2023/09/11 18:52:01;;;;;;;43.17;27.23;;;;;;;;;;4934513;28;20071;-76
2023/09/11 18:54:30;;;;;;;42.28;25.38;;;;;;;;;;4961671;28;20054;-74
2023/09/11 18:56:57;;;;;;;42.22;25.33;;;;;;;;;;4945978;28;20044;-74
2023/09/11 18:59:23;;;;;;;37.70;26.27;;;;;;;;;;4929840;28;20043;-75
2023/09/11 19:01:49;;;;;;;39.85;24.08;;;;;;;;;;4961091;28;20070;-72
2023/09/11 19:04:21;;;;;;;38.83;23.52;;;;;;;;;;4931022;28;20430;-73
2023/09/11 19:06:47;;;;;;;36.42;21.90;;;;;;;;;;4962478;28;20046;-76
2023/09/11 19:09:13;;;;;;;28.08;21.27;;;;;;;;;;4970065;28;20039;-75
2023/09/11 19:11:39;;;;;;;25.42;20.40;;;;;;;;;;4966250;28;20591;-73
2023/09/11 19:14:05;;;;;;;31.27;19.95;;;;;;;;;;4977817;28;20531;-75
2023/09/11 19:16:43;;;;;;;37.28;22.90;;;;;;;;;;4957386;28;20047;-74
2023/09/11 19:19:09;;;;;;;35.28;22.75;;;;;;;;;;4922156;28;20062;-75
2023/09/11 19:21:35;;;;;;;24.58;16.55;;;;;;;;;;4971546;28;20043;-75
2023/09/11 19:24:01;;;;;;;31.48;19.95;;;;;;;;;;4972160;28;20037;-75
2023/09/11 19:26:27;;;;;;;30.55;19.35;;;;;;;;;;4968389;28;20043;-75
2023/09/11 19:28:54;;;;;;;31.80;19.48;;;;;;;;;;4964903;28;20608;-74
2023/09/11 19:31:22;;;;;;;38.75;20.33;;;;;;;;;;4963143;28;20102;-74
2023/09/11 19:33:49;;;;;;;19.83;14.30;;;;;;;;;;4952258;28;20041;-75
2023/09/11 19:36:15;;;;;;;33.20;20.20;;;;;;;;;;4957268;28;20043;-75
2023/09/11 19:38:41;;;;;;;27.98;19.23;;;;;;;;;;4919534;29;20496;-76
2023/09/11 19:41:09;;;;;;;24.33;17.00;;;;;;;;;;4919894;29;20054;-76
2023/09/11 19:43:37;;;;;;;27.65;18.30;;;;;;;;;;4926338;28;20500;-78
2023/09/11 19:46:04;;;;;;;27.30;16.35;;;;;;;;;;4972381;28;20046;-77
2023/09/11 19:48:30;;;;;;;27.13;18.73;;;;;;;;;;4969607;28;20042;-77
2023/09/11 19:51:00;;;;;;;27.23;19.48;;;;;;;;;;4972677;28;20464;-77
2023/09/11 19:53:26;;;;;;;25.67;18.98;;;;;;;;;;4973763;28;20076;-78
2023/09/11 19:55:52;;;;;;;28.30;18.67;;;;;;;;;;4971707;28;20051;-78
2023/09/11 19:58:18;;;;;;;25.65;17.45;;;;;;;;;;4971009;28;20043;-79
2023/09/11 20:00:44;;;;;;;30.55;17.80;;;;;;;;;;4973019;28;20054;-76
2023/09/11 20:03:10;;;;;;;28.85;19.00;;;;;;;;;;4954411;28;20053;-76
2023/09/11 20:05:36;;;;;;;26.83;18.40;;;;;;;;;;4954421;28;20050;-76
2023/09/11 20:08:02;;;;;;;30.33;19.15;;;;;;;;;;4953739;28;20089;-76
2023/09/11 20:10:28;;;;;;;23.05;16.05;;;;;;;;;;4964281;28;20046;-77
2023/09/11 20:12:54;;;;;;;26.83;17.30;;;;;;;;;;4952021;28;20415;-77
2023/09/11 20:15:20;;;;;;;27.10;18.55;;;;;;;;;;4961830;28;20062;-76
2023/09/11 20:18:17;;;;;;;29.58;18.98;;;;;;;;;;4966429;28;20510;-80
2023/09/11 20:20:48;;;;;;;26.15;17.75;;;;;;;;;;4957380;28;20053;-81
2023/09/11 20:23:21;;;;;;;27.20;19.50;;;;;;;;;;4935222;28;20046;-80
2023/09/11 20:25:47;;;;;;;31.08;18.33;;;;;;;;;;4933200;28;20074;-81
2023/09/11 20:28:13;;;;;;;29.10;17.17;;;;;;;;;;4938309;28;20133;-80
2023/09/11 20:30:39;;;;;;;31.98;18.83;;;;;;;;;;4963301;28;20070;-82
2023/09/11 20:33:31;;;;;;;26.90;19.00;;;;;;;;;;4954495;28;20042;-81
2023/09/11 20:35:57;;;;;;;25.70;19.42;;;;;;;;;;4963124;28;20046;-74
2023/09/11 20:38:30;;;;;;;32.22;19.20;;;;;;;;;;4928610;28;20089;-76
2023/09/11 20:40:57;;;;;;;31.08;18.95;;;;;;;;;;4922491;28;20054;-74
2023/09/11 20:43:22;;;;;;;28.90;18.95;;;;;;;;;;4937563;28;20039;-74
2023/09/11 20:45:49;;;;;;;30.15;20.02;;;;;;;;;;4940668;28;20129;-74
2023/09/11 20:48:15;;;;;;;35.78;18.70;;;;;;;;;;4934326;29;20133;-75